sensor_id;sensor_type;location;lat;lon;timestamp;pressure;altitude;pressure_sealevel;temperature;humidity
16461;BME280;8341;42.048;24.650;2023-04-21T00:01:40;96805.31;;;12.11;78.81
16461;BME280;8341;42.048;24.650;2023-04-21T00:04:07;96796.13;;;12.14;78.58
16461;BME280;8341;42.048;24.650;2023-04-21T00:06:39;96793.41;;;12.14;76.36
16461;BME280;8341;42.048;24.650;2023-04-21T00:09:07;96794.88;;;12.15;77.57
16461;BME280;8341;42.048;24.650;2023-04-21T00:11:36;96801.59;;;12.08;76.97
16461;BME280;8341;42.048;24.650;2023-04-21T00:14:03;96797.88;;;12.11;77.67
16461;BME280;8341;42.048;24.650;2023-04-21T00:16:30;96794.63;;;12.02;78.18
16461;BME280;8341;42.048;24.650;2023-04-21T00:18:57;96795.56;;;11.93;78.71
16461;BME280;8341;42.048;24.650;2023-04-21T00:21:24;96796.31;;;11.93;80.04
16461;BME280;8341;42.048;24.650;2023-04-21T00:23:51;96798.03;;;11.85;78.95
16461;BME280;8341;42.048;24.650;2023-04-21T00:26:19;96784.56;;;11.76;78.94
16461;BME280;8341;42.048;24.650;2023-04-21T00:28:47;96797.22;;;11.74;79.25
16461;BME280;8341;42.048;24.650;2023-04-21T00:31:14;96792.56;;;11.85;79.74
16461;BME280;8341;42.048;24.650;2023-04-21T00:33:41;96793.31;;;11.86;79.99
16461;BME280;8341;42.048;24.650;2023-04-21T00:36:08;96795.53;;;11.87;80.52
16461;BME280;8341;42.048;24.650;2023-04-21T00:38:35;96790.34;;;11.89;80.55
16461;BME280;8341;42.048;24.650;2023-04-21T00:41:02;96794.81;;;11.92;80.05
16461;BME280;8341;42.048;24.650;2023-04-21T00:43:29;96787.59;;;11.89;80.34
16461;BME280;8341;42.048;24.650;2023-04-21T00:45:57;96787.84;;;11.86;80.41
16461;BME280;8341;42.048;24.650;2023-04-21T00:48:24;96785.84;;;11.86;79.86
16461;BME280;8341;42.048;24.650;2023-04-21T00:50:51;96773.19;;;11.83;80.02
16461;BME280;8341;42.048;24.650;2023-04-21T00:53:19;96778.19;;;11.90;80.00
16461;BME280;8341;42.048;24.650;2023-04-21T00:55:46;96774.94;;;11.92;80.58
16461;BME280;8341;42.048;24.650;2023-04-21T00:58:13;96778.19;;;11.96;80.14
16461;BME280;8341;42.048;24.650;2023-04-21T01:00:40;96776.72;;;12.01;79.91
16461;BME280;8341;42.048;24.650;2023-04-21T01:03:10;96785.16;;;12.03;79.47
16461;BME280;8341;42.048;24.650;2023-04-21T01:05:37;96777.19;;;11.93;77.69
16461;BME280;8341;42.048;24.650;2023-04-21T01:08:05;96772.97;;;11.98;77.22
16461;BME280;8341;42.048;24.650;2023-04-21T01:10:33;96766.78;;;12.03;77.18
16461;BME280;8341;42.048;24.650;2023-04-21T01:13:00;96766.28;;;11.99;78.06
16461;BME280;8341;42.048;24.650;2023-04-21T01:15:27;96769.03;;;12.05;76.77
16461;BME280;8341;42.048;24.650;2023-04-21T01:17:56;96766.53;;;12.01;80.42
16461;BME280;8341;42.048;24.650;2023-04-21T01:20:24;96758.06;;;11.93;79.27
16461;BME280;8341;42.048;24.650;2023-04-21T01:22:55;96766.28;;;12.05;78.66
16461;BME280;8341;42.048;24.650;2023-04-21T01:25:22;96765.31;;;12.08;78.41
16461;BME280;8341;42.048;24.650;2023-04-21T01:27:52;96774.75;;;12.07;78.32
16461;BME280;8341;42.048;24.650;2023-04-21T01:30:19;96766.56;;;12.07;78.89
16461;BME280;8341;42.048;24.650;2023-04-21T01:32:46;96767.78;;;12.06;79.59
16461;BME280;8341;42.048;24.650;2023-04-21T01:35:13;96767.53;;;12.04;79.22
16461;BME280;8341;42.048;24.650;2023-04-21T01:37:40;96762.31;;;12.06;79.45
16461;BME280;8341;42.048;24.650;2023-04-21T01:40:09;96759.59;;;12.06;79.06
16461;BME280;8341;42.048;24.650;2023-04-21T01:42:42;96755.13;;;12.08;78.70
16461;BME280;8341;42.048;24.650;2023-04-21T01:45:10;96767.03;;;12.05;78.55
16461;BME280;8341;42.048;24.650;2023-04-21T01:47:37;96757.09;;;12.02;78.74
16461;BME280;8341;42.048;24.650;2023-04-21T01:50:05;96757.59;;;12.01;78.90
16461;BME280;8341;42.048;24.650;2023-04-21T01:52:32;96767.00;;;11.94;78.80
16461;BME280;8341;42.048;24.650;2023-04-21T01:54:59;96755.28;;;11.82;78.79
16461;BME280;8341;42.048;24.650;2023-04-21T01:57:28;96757.31;;;11.87;79.15
16461;BME280;8341;42.048;24.650;2023-04-21T01:59:55;96756.31;;;11.90;78.89
16461;BME280;8341;42.048;24.650;2023-04-21T02:02:22;96767.00;;;11.88;79.33
16461;BME280;8341;42.048;24.650;2023-04-21T02:04:49;96760.81;;;11.93;79.63
16461;BME280;8341;42.048;24.650;2023-04-21T02:07:16;96761.53;;;11.88;79.46
16461;BME280;8341;42.048;24.650;2023-04-21T02:09:43;96757.78;;;11.80;79.37
16461;BME280;8341;42.048;24.650;2023-04-21T02:12:10;96757.53;;;11.78;79.51
16461;BME280;8341;42.048;24.650;2023-04-21T02:14:39;96763.25;;;11.80;79.66
16461;BME280;8341;42.048;24.650;2023-04-21T02:17:06;96758.53;;;11.81;79.95
16461;BME280;8341;42.048;24.650;2023-04-21T02:19:33;96755.53;;;11.79;80.13
16461;BME280;8341;42.048;24.650;2023-04-21T02:22:00;96750.31;;;11.75;79.49
16461;BME280;8341;42.048;24.650;2023-04-21T02:24:27;96755.47;;;11.68;79.12
16461;BME280;8341;42.048;24.650;2023-04-21T02:26:53;96753.22;;;11.66;79.78
16461;BME280;8341;42.048;24.650;2023-04-21T02:29:22;96757.19;;;11.65;80.22
16461;BME280;8341;42.048;24.650;2023-04-21T02:31:50;96756.25;;;11.68;79.96
16461;BME280;8341;42.048;24.650;2023-04-21T02:34:17;96746.28;;;11.65;80.66
16461;BME280;8341;42.048;24.650;2023-04-21T02:36:45;96749.72;;;11.60;80.16
16461;BME280;8341;42.048;24.650;2023-04-21T02:39:12;96750.69;;;11.57;80.22
16461;BME280;8341;42.048;24.650;2023-04-21T02:41:39;96748.22;;;11.59;80.74
16461;BME280;8341;42.048;24.650;2023-04-21T02:44:06;96750.97;;;11.59;80.17
16461;BME280;8341;42.048;24.650;2023-04-21T02:46:33;96760.59;;;11.49;80.36
16461;BME280;8341;42.048;24.650;2023-04-21T02:49:01;96745.72;;;11.50;80.44
16461;BME280;8341;42.048;24.650;2023-04-21T02:51:28;96751.19;;;11.50;80.80
16461;BME280;8341;42.048;24.650;2023-04-21T02:53:56;96749.69;;;11.55;80.50
16461;BME280;8341;42.048;24.650;2023-04-21T02:56:23;96753.88;;;11.45;79.98
16461;BME280;8341;42.048;24.650;2023-04-21T02:58:50;96743.47;;;11.49;80.66
16461;BME280;8341;42.048;24.650;2023-04-21T03:01:17;96738.81;;;11.60;78.96
16461;BME280;8341;42.048;24.650;2023-04-21T03:03:44;96747.25;;;11.62;78.89
16461;BME280;8341;42.048;24.650;2023-04-21T03:06:12;96747.25;;;11.62;79.86
16461;BME280;8341;42.048;24.650;2023-04-21T03:08:39;96745.94;;;11.47;80.53
16461;BME280;8341;42.048;24.650;2023-04-21T03:11:06;96750.66;;;11.46;81.60
16461;BME280;8341;42.048;24.650;2023-04-21T03:13:33;96753.88;;;11.45;80.30
16461;BME280;8341;42.048;24.650;2023-04-21T03:16:01;96751.19;;;11.50;80.00
16461;BME280;8341;42.048;24.650;2023-04-21T03:18:28;96762.09;;;11.50;80.16
16461;BME280;8341;42.048;24.650;2023-04-21T03:20:58;96754.16;;;11.52;80.89
16461;BME280;8341;42.048;24.650;2023-04-21T03:23:27;96731.28;;;11.44;80.51
16461;BME280;8341;42.048;24.650;2023-04-21T03:25:54;96752.47;;;11.60;79.58
16461;BME280;8341;42.048;24.650;2023-04-21T03:28:21;96761.56;;;11.46;79.17
16461;BME280;8341;42.048;24.650;2023-04-21T03:30:48;96753.84;;;11.39;80.18
16461;BME280;8341;42.048;24.650;2023-04-21T03:33:15;96757.78;;;11.38;79.86
16461;BME280;8341;42.048;24.650;2023-04-21T03:35:42;96755.78;;;11.33;79.74
16461;BME280;8341;42.048;24.650;2023-04-21T03:38:09;96761.97;;;11.28;80.18
16461;BME280;8341;42.048;24.650;2023-04-21T03:40:37;96753.31;;;11.29;80.84
16461;BME280;8341;42.048;24.650;2023-04-21T03:43:04;96760.03;;;11.34;80.51
16461;BME280;8341;42.048;24.650;2023-04-21T03:45:33;96763.97;;;11.33;79.60
16461;BME280;8341;42.048;24.650;2023-04-21T03:48:00;96774.91;;;11.33;79.17
16461;BME280;8341;42.048;24.650;2023-04-21T03:50:28;96777.16;;;11.35;78.91
16461;BME280;8341;42.048;24.650;2023-04-21T03:52:55;96780.34;;;11.33;79.82
16461;BME280;8341;42.048;24.650;2023-04-21T03:55:22;96784.00;;;11.19;81.21
16461;BME280;8341;42.048;24.650;2023-04-21T03:57:50;96780.03;;;11.20;79.72
16461;BME280;8341;42.048;24.650;2023-04-21T04:00:17;96772.50;;;11.09;80.92
16461;BME280;8341;42.048;24.650;2023-04-21T04:02:45;96778.81;;;11.21;81.22
16461;BME280;8341;42.048;24.650;2023-04-21T04:05:12;96793.53;;;11.35;79.29
16461;BME280;8341;42.048;24.650;2023-04-21T04:07:39;96792.31;;;11.41;78.48
16461;BME280;8341;42.048;24.650;2023-04-21T04:10:06;96799.00;;;11.40;78.16
16461;BME280;8341;42.048;24.650;2023-04-21T04:12:33;96804.03;;;11.47;78.53
16461;BME280;8341;42.048;24.650;2023-04-21T04:15:02;96815.53;;;11.62;77.17
16461;BME280;8341;42.048;24.650;2023-04-21T04:17:29;96795.84;;;11.47;76.98
16461;BME280;8341;42.048;24.650;2023-04-21T04:19:56;96818.34;;;11.73;76.54
16461;BME280;8341;42.048;24.650;2023-04-21T04:22:23;96810.66;;;11.77;75.63
16461;BME280;8341;42.048;24.650;2023-04-21T04:24:50;96822.88;;;11.87;75.20
16461;BME280;8341;42.048;24.650;2023-04-21T04:27:17;96815.94;;;11.92;75.30
16461;BME280;8341;42.048;24.650;2023-04-21T04:29:44;96826.16;;;12.03;75.47
16461;BME280;8341;42.048;24.650;2023-04-21T04:32:15;96828.69;;;12.12;74.73
16461;BME280;8341;42.048;24.650;2023-04-21T04:34:42;96830.44;;;12.20;73.79
16461;BME280;8341;42.048;24.650;2023-04-21T04:37:09;96826.75;;;12.29;73.26
16461;BME280;8341;42.048;24.650;2023-04-21T04:39:37;96830.50;;;12.37;73.61
16461;BME280;8341;42.048;24.650;2023-04-21T04:42:05;96833.97;;;12.43;73.98
16461;BME280;8341;42.048;24.650;2023-04-21T04:44:34;96837.44;;;12.38;72.53
16461;BME280;8341;42.048;24.650;2023-04-21T04:47:01;96836.72;;;12.43;73.54
16461;BME280;8341;42.048;24.650;2023-04-21T04:49:29;96844.47;;;12.50;73.55
16461;BME280;8341;42.048;24.650;2023-04-21T04:51:57;96848.41;;;12.49;74.77
16461;BME280;8341;42.048;24.650;2023-04-21T04:54:24;96846.22;;;12.53;73.39
16461;BME280;8341;42.048;24.650;2023-04-21T04:56:53;96836.97;;;12.39;73.66
16461;BME280;8341;42.048;24.650;2023-04-21T04:59:21;96848.44;;;12.60;74.51
16461;BME280;8341;42.048;24.650;2023-04-21T05:01:48;96829.78;;;12.64;75.63
16461;BME280;8341;42.048;24.650;2023-04-21T05:04:15;96851.72;;;12.86;76.13
16461;BME280;8341;42.048;24.650;2023-04-21T05:06:44;96838.03;;;12.97;75.68
16461;BME280;8341;42.048;24.650;2023-04-21T05:09:11;96838.06;;;13.08;74.78
16461;BME280;8341;42.048;24.650;2023-04-21T05:11:38;96843.75;;;13.05;73.82
16461;BME280;8341;42.048;24.650;2023-04-21T05:14:05;96838.56;;;13.12;73.02
16461;BME280;8341;42.048;24.650;2023-04-21T05:16:32;96831.84;;;13.19;70.85
16461;BME280;8341;42.048;24.650;2023-04-21T05:19:00;96800.22;;;13.01;71.06
16461;BME280;8341;42.048;24.650;2023-04-21T05:21:28;96833.09;;;13.35;71.48
16461;BME280;8341;42.048;24.650;2023-04-21T05:23:57;96840.31;;;13.38;70.10
16461;BME280;8341;42.048;24.650;2023-04-21T05:26:26;96840.53;;;13.23;68.05
16461;BME280;8341;42.048;24.650;2023-04-21T05:28:53;96835.81;;;13.18;70.52
16461;BME280;8341;42.048;24.650;2023-04-21T05:31:21;96849.50;;;13.12;69.26
16461;BME280;8341;42.048;24.650;2023-04-21T05:33:48;96857.97;;;13.31;67.87
16461;BME280;8341;42.048;24.650;2023-04-21T05:36:15;96854.00;;;13.38;67.48
16461;BME280;8341;42.048;24.650;2023-04-21T05:38:44;96851.50;;;13.40;66.77
16461;BME280;8341;42.048;24.650;2023-04-21T05:41:13;96854.00;;;13.38;67.11
16461;BME280;8341;42.048;24.650;2023-04-21T05:43:40;96852.47;;;13.53;66.12
16461;BME280;8341;42.048;24.650;2023-04-21T05:46:08;96853.72;;;13.52;67.94
16461;BME280;8341;42.048;24.650;2023-04-21T05:48:36;96860.19;;;13.55;65.64
16461;BME280;8341;42.048;24.650;2023-04-21T05:51:12;96843.97;;;13.68;64.39
16461;BME280;8341;42.048;24.650;2023-04-21T05:53:40;96853.72;;;13.58;65.30
16461;BME280;8341;42.048;24.650;2023-04-21T05:56:08;96867.66;;;13.71;65.35
16461;BME280;8341;42.048;24.650;2023-04-21T05:58:37;96846.94;;;13.75;65.28
16461;BME280;8341;42.048;24.650;2023-04-21T06:01:06;96855.38;;;13.94;64.60
16461;BME280;8341;42.048;24.650;2023-04-21T06:03:33;96848.63;;;13.95;64.13
16461;BME280;8341;42.048;24.650;2023-04-21T06:06:01;96837.41;;;13.99;61.41
16461;BME280;8341;42.048;24.650;2023-04-21T06:08:28;96845.91;;;13.84;62.93
16461;BME280;8341;42.048;24.650;2023-04-21T06:10:55;96847.09;;;14.00;63.79
16461;BME280;8341;42.048;24.650;2023-04-21T06:13:22;96844.34;;;14.11;61.78
16461;BME280;8341;42.048;24.650;2023-04-21T06:15:50;96841.31;;;14.20;61.00
16461;BME280;8341;42.048;24.650;2023-04-21T06:18:17;96846.31;;;14.10;61.91
16461;BME280;8341;42.048;24.650;2023-04-21T06:20:49;96840.50;;;14.30;61.46
16461;BME280;8341;42.048;24.650;2023-04-21T06:23:16;96846.47;;;14.40;59.97
16461;BME280;8341;42.048;24.650;2023-04-21T06:25:43;96836.97;;;14.47;61.16
16461;BME280;8341;42.048;24.650;2023-04-21T06:28:10;96838.91;;;14.52;59.24
16461;BME280;8341;42.048;24.650;2023-04-21T06:30:37;96848.84;;;14.60;58.93
16461;BME280;8341;42.048;24.650;2023-04-21T06:33:05;96843.16;;;14.53;59.51
16461;BME280;8341;42.048;24.650;2023-04-21T06:35:32;96835.38;;;14.62;58.87
16461;BME280;8341;42.048;24.650;2023-04-21T06:37:59;96834.56;;;14.73;57.43
16461;BME280;8341;42.048;24.650;2023-04-21T06:40:26;96835.56;;;14.70;58.68
16461;BME280;8341;42.048;24.650;2023-04-21T06:42:52;96829.63;;;14.66;57.97
16461;BME280;8341;42.048;24.650;2023-04-21T06:45:19;96831.66;;;14.60;56.71
16461;BME280;8341;42.048;24.650;2023-04-21T06:47:46;96838.06;;;14.73;56.03
16461;BME280;8341;42.048;24.650;2023-04-21T06:50:15;96837.13;;;14.60;57.83
16461;BME280;8341;42.048;24.650;2023-04-21T06:52:41;96833.16;;;14.61;58.15
16461;BME280;8341;42.048;24.650;2023-04-21T06:55:08;96836.53;;;14.78;57.84
16461;BME280;8341;42.048;24.650;2023-04-21T06:57:35;96833.09;;;14.66;57.64
16461;BME280;8341;42.048;24.650;2023-04-21T07:00:03;96830.63;;;14.63;58.20
16461;BME280;8341;42.048;24.650;2023-04-21T07:02:31;96833.41;;;14.57;57.18
16461;BME280;8341;42.048;24.650;2023-04-21T07:04:57;96837.59;;;14.64;57.66
16461;BME280;8341;42.048;24.650;2023-04-21T07:07:26;96835.50;;;14.81;57.00
16461;BME280;8341;42.048;24.650;2023-04-21T07:09:52;96842.34;;;14.69;56.47
16461;BME280;8341;42.048;24.650;2023-04-21T07:12:19;96835.56;;;14.70;57.13
16461;BME280;8341;42.048;24.650;2023-04-21T07:14:46;96826.28;;;14.78;56.63
16461;BME280;8341;42.048;24.650;2023-04-21T07:17:13;96834.50;;;14.84;56.71
16461;BME280;8341;42.048;24.650;2023-04-21T07:19:39;96845.69;;;14.86;55.63
16461;BME280;8341;42.048;24.650;2023-04-21T07:22:06;96826.16;;;14.95;55.34
16461;BME280;8341;42.048;24.650;2023-04-21T07:24:34;96846.25;;;15.14;55.75
16461;BME280;8341;42.048;24.650;2023-04-21T07:27:02;96840.19;;;14.91;56.10
16461;BME280;8341;42.048;24.650;2023-04-21T07:29:29;96838.41;;;14.94;55.68
16461;BME280;8341;42.048;24.650;2023-04-21T07:31:56;96842.50;;;15.12;54.39
16461;BME280;8341;42.048;24.650;2023-04-21T07:34:23;96845.59;;;15.32;54.76
16461;BME280;8341;42.048;24.650;2023-04-21T07:36:50;96844.09;;;15.31;53.99
16461;BME280;8341;42.048;24.650;2023-04-21T07:39:17;96845.69;;;15.21;54.27
16461;BME280;8341;42.048;24.650;2023-04-21T07:41:45;96856.56;;;15.32;54.38
16461;BME280;8341;42.048;24.650;2023-04-21T07:44:12;96838.53;;;15.37;55.24
16461;BME280;8341;42.048;24.650;2023-04-21T07:46:39;96832.19;;;15.53;55.35
16461;BME280;8341;42.048;24.650;2023-04-21T07:49:06;96845.75;;;15.70;54.77
16461;BME280;8341;42.048;24.650;2023-04-21T07:51:33;96837.63;;;15.83;54.38
16461;BME280;8341;42.048;24.650;2023-04-21T07:54:00;96819.00;;;15.70;52.33
16461;BME280;8341;42.048;24.650;2023-04-21T07:56:27;96840.69;;;15.98;54.23
16461;BME280;8341;42.048;24.650;2023-04-21T07:58:55;96839.13;;;16.02;52.79
16461;BME280;8341;42.048;24.650;2023-04-21T08:01:22;96835.13;;;16.03;53.61
16461;BME280;8341;42.048;24.650;2023-04-21T08:03:49;96832.19;;;16.20;51.53
16461;BME280;8341;42.048;24.650;2023-04-21T08:06:16;96842.63;;;16.03;52.10
16461;BME280;8341;42.048;24.650;2023-04-21T08:08:42;96833.50;;;16.13;52.51
16461;BME280;8341;42.048;24.650;2023-04-21T08:11:09;96831.47;;;16.38;50.13
16461;BME280;8341;42.048;24.650;2023-04-21T08:13:36;96826.50;;;16.55;50.99
16461;BME280;8341;42.048;24.650;2023-04-21T08:16:05;96836.78;;;16.49;52.17
16461;BME280;8341;42.048;24.650;2023-04-21T08:18:31;96827.00;;;16.54;51.08
16461;BME280;8341;42.048;24.650;2023-04-21T08:20:58;96823.88;;;16.63;51.08
16461;BME280;8341;42.048;24.650;2023-04-21T08:23:26;96818.22;;;16.55;50.30
16461;BME280;8341;42.048;24.650;2023-04-21T08:25:55;96832.44;;;16.59;51.10
16461;BME280;8341;42.048;24.650;2023-04-21T08:28:21;96812.56;;;16.98;50.18
16461;BME280;8341;42.048;24.650;2023-04-21T08:30:48;96825.19;;;16.94;49.24
16461;BME280;8341;42.048;24.650;2023-04-21T08:33:16;96823.47;;;16.90;49.37
16461;BME280;8341;42.048;24.650;2023-04-21T08:35:43;96817.53;;;16.86;48.61
16461;BME280;8341;42.048;24.650;2023-04-21T08:38:10;96832.88;;;17.14;50.63
16461;BME280;8341;42.048;24.650;2023-04-21T08:40:37;96823.53;;;16.85;47.05
16461;BME280;8341;42.048;24.650;2023-04-21T08:43:04;96821.16;;;16.95;48.22
16461;BME280;8341;42.048;24.650;2023-04-21T08:45:32;96811.31;;;16.99;48.16
16461;BME280;8341;42.048;24.650;2023-04-21T08:48:00;96812.31;;;17.15;44.98
16461;BME280;8341;42.048;24.650;2023-04-21T08:50:31;96810.50;;;17.04;48.07
16461;BME280;8341;42.048;24.650;2023-04-21T08:52:57;96815.59;;;17.13;46.85
16461;BME280;8341;42.048;24.650;2023-04-21T08:55:25;96794.13;;;17.25;45.58
16461;BME280;8341;42.048;24.650;2023-04-21T08:57:53;96786.06;;;17.27;47.62
16461;BME280;8341;42.048;24.650;2023-04-21T09:00:20;96804.03;;;17.60;47.29
16461;BME280;8341;42.048;24.650;2023-04-21T09:02:54;96799.91;;;17.66;45.31
16461;BME280;8341;42.048;24.650;2023-04-21T09:05:22;96797.47;;;17.89;45.48
16461;BME280;8341;42.048;24.650;2023-04-21T09:07:52;96780.81;;;17.81;44.18
16461;BME280;8341;42.048;24.650;2023-04-21T09:10:23;96785.38;;;18.05;45.31
16461;BME280;8341;42.048;24.650;2023-04-21T09:12:51;96784.16;;;18.13;47.03
16461;BME280;8341;42.048;24.650;2023-04-21T09:15:19;96774.75;;;17.96;40.30
16461;BME280;8341;42.048;24.650;2023-04-21T09:17:53;96762.63;;;18.12;45.98
16461;BME280;8341;42.048;24.650;2023-04-21T09:20:21;96766.44;;;18.22;43.89
16461;BME280;8341;42.048;24.650;2023-04-21T09:22:49;96764.38;;;18.36;44.85
16461;BME280;8341;42.048;24.650;2023-04-21T09:25:19;96766.19;;;18.33;41.14
16461;BME280;8341;42.048;24.650;2023-04-21T09:27:46;96766.13;;;18.59;45.06
16461;BME280;8341;42.048;24.650;2023-04-21T09:30:17;96751.59;;;18.46;44.29
16461;BME280;8341;42.048;24.650;2023-04-21T09:32:44;96759.66;;;18.57;44.87
16461;BME280;8341;42.048;24.650;2023-04-21T09:35:11;96749.03;;;18.61;44.84
16461;BME280;8341;42.048;24.650;2023-04-21T09:37:38;96758.84;;;18.49;43.29
16461;BME280;8341;42.048;24.650;2023-04-21T09:40:06;96753.25;;;18.28;43.07
16461;BME280;8341;42.048;24.650;2023-04-21T09:42:34;96742.22;;;18.62;42.62
16461;BME280;8341;42.048;24.650;2023-04-21T09:45:01;96753.59;;;18.58;39.68
16461;BME280;8341;42.048;24.650;2023-04-21T09:47:28;96745.03;;;18.69;40.91
16461;BME280;8341;42.048;24.650;2023-04-21T09:49:57;96742.91;;;18.75;43.23
16461;BME280;8341;42.048;24.650;2023-04-21T09:52:26;96743.66;;;18.76;41.68
16461;BME280;8341;42.048;24.650;2023-04-21T09:54:57;96731.09;;;18.54;42.90
16461;BME280;8341;42.048;24.650;2023-04-21T09:57:26;96728.75;;;18.79;44.27
16461;BME280;8341;42.048;24.650;2023-04-21T10:00:00;96733.59;;;18.86;42.81
16461;BME280;8341;42.048;24.650;2023-04-21T10:02:30;96733.72;;;19.01;43.97
16461;BME280;8341;42.048;24.650;2023-04-21T10:04:57;96726.00;;;18.79;43.67
16461;BME280;8341;42.048;24.650;2023-04-21T10:07:24;96727.41;;;18.93;42.78
16461;BME280;8341;42.048;24.650;2023-04-21T10:09:53;96727.34;;;19.34;42.85
16461;BME280;8341;42.048;24.650;2023-04-21T10:12:22;96724.66;;;19.42;40.77
16461;BME280;8341;42.048;24.650;2023-04-21T10:14:50;96700.19;;;18.97;36.74
16461;BME280;8341;42.048;24.650;2023-04-21T10:17:21;96726.16;;;19.22;37.88
16461;BME280;8341;42.048;24.650;2023-04-21T10:19:50;96722.50;;;19.27;37.75
16461;BME280;8341;42.048;24.650;2023-04-21T10:22:26;96719.94;;;19.29;37.90
16461;BME280;8341;42.048;24.650;2023-04-21T10:24:54;96726.66;;;19.42;39.05
16461;BME280;8341;42.048;24.650;2023-04-21T10:27:32;96712.25;;;19.35;39.40
16461;BME280;8341;42.048;24.650;2023-04-21T10:30:00;96712.69;;;19.47;38.54
16461;BME280;8341;42.048;24.650;2023-04-21T10:32:38;96708.88;;;19.58;39.73
16461;BME280;8341;42.048;24.650;2023-04-21T10:35:08;96712.63;;;19.68;40.25
16461;BME280;8341;42.048;24.650;2023-04-21T10:37:35;96710.38;;;19.59;42.16
16461;BME280;8341;42.048;24.650;2023-04-21T10:40:02;96700.28;;;19.69;41.67
16461;BME280;8341;42.048;24.650;2023-04-21T10:42:34;96711.34;;;19.69;38.70
16461;BME280;8341;42.048;24.650;2023-04-21T10:45:10;96694.34;;;19.65;40.07
16461;BME280;8341;42.048;24.650;2023-04-21T10:47:48;96699.72;;;20.21;40.97
16461;BME280;8341;42.048;24.650;2023-04-21T10:50:20;96714.03;;;20.40;39.83
16461;BME280;8341;42.048;24.650;2023-04-21T10:52:54;96714.41;;;20.59;38.70
16461;BME280;8341;42.048;24.650;2023-04-21T10:55:25;96696.25;;;20.21;37.98
16461;BME280;8341;42.048;24.650;2023-04-21T10:57:52;96703.09;;;20.27;41.42
16461;BME280;8341;42.048;24.650;2023-04-21T11:00:20;96716.47;;;20.51;39.19
16461;BME280;8341;42.048;24.650;2023-04-21T11:03:00;96697.00;;;20.29;38.03
16461;BME280;8341;42.048;24.650;2023-04-21T11:05:29;96700.97;;;20.71;38.88
16461;BME280;8341;42.048;24.650;2023-04-21T11:08:06;96702.06;;;20.83;37.13
16461;BME280;8341;42.048;24.650;2023-04-21T11:10:45;96697.09;;;21.04;37.17
16461;BME280;8341;42.048;24.650;2023-04-21T11:13:12;96695.84;;;21.75;38.40
16461;BME280;8341;42.048;24.650;2023-04-21T11:15:39;96700.56;;;21.50;37.49
16461;BME280;8341;42.048;24.650;2023-04-21T11:18:07;96696.13;;;21.40;37.23
16461;BME280;8341;42.048;24.650;2023-04-21T11:20:38;96700.78;;;20.99;36.19
16461;BME280;8341;42.048;24.650;2023-04-21T11:23:06;96704.31;;;20.85;38.86
16461;BME280;8341;42.048;24.650;2023-04-21T11:25:33;96710.19;;;20.66;38.86
16461;BME280;8341;42.048;24.650;2023-04-21T11:28:00;96710.19;;;20.51;36.53
16461;BME280;8341;42.048;24.650;2023-04-21T11:30:32;96699.84;;;20.97;37.26
16461;BME280;8341;42.048;24.650;2023-04-21T11:32:59;96700.41;;;20.88;36.66
16461;BME280;8341;42.048;24.650;2023-04-21T11:35:28;96705.00;;;20.55;37.86
16461;BME280;8341;42.048;24.650;2023-04-21T11:37:55;96700.81;;;20.11;36.40
16461;BME280;8341;42.048;24.650;2023-04-21T11:40:22;96687.41;;;20.30;37.70
16461;BME280;8341;42.048;24.650;2023-04-21T11:42:49;96708.16;;;20.59;36.93
16461;BME280;8341;42.048;24.650;2023-04-21T11:45:16;96689.22;;;20.20;37.19
16461;BME280;8341;42.048;24.650;2023-04-21T11:47:44;96712.78;;;20.56;39.07
16461;BME280;8341;42.048;24.650;2023-04-21T11:50:11;96705.00;;;20.47;38.23
16461;BME280;8341;42.048;24.650;2023-04-21T11:52:39;96706.84;;;20.45;36.77
16461;BME280;8341;42.048;24.650;2023-04-21T11:55:11;96710.34;;;20.45;37.80
16461;BME280;8341;42.048;24.650;2023-04-21T11:57:40;96703.84;;;20.28;37.62
16461;BME280;8341;42.048;24.650;2023-04-21T12:00:08;96707.63;;;20.10;35.79
16461;BME280;8341;42.048;24.650;2023-04-21T12:02:36;96715.00;;;20.07;35.74
16461;BME280;8341;42.048;24.650;2023-04-21T12:05:04;96718.63;;;19.87;38.24
16461;BME280;8341;42.048;24.650;2023-04-21T12:07:32;96727.88;;;19.54;41.31
16461;BME280;8341;42.048;24.650;2023-04-21T12:10:01;96720.59;;;18.94;41.90
16461;BME280;8341;42.048;24.650;2023-04-21T12:12:36;96725.03;;;19.18;44.16
16461;BME280;8341;42.048;24.650;2023-04-21T12:15:03;96725.44;;;19.01;43.63
16461;BME280;8341;42.048;24.650;2023-04-21T12:17:35;96727.13;;;19.04;41.86
16461;BME280;8341;42.048;24.650;2023-04-21T12:20:04;96703.88;;;19.00;41.46
16461;BME280;8341;42.048;24.650;2023-04-21T12:22:32;96711.22;;;18.97;40.88
16461;BME280;8341;42.048;24.650;2023-04-21T12:24:58;96712.09;;;19.13;41.63
16461;BME280;8341;42.048;24.650;2023-04-21T12:27:26;96707.63;;;19.10;41.76
16461;BME280;8341;42.048;24.650;2023-04-21T12:29:53;96707.44;;;19.08;41.09
16461;BME280;8341;42.048;24.650;2023-04-21T12:32:20;96709.53;;;18.94;42.19
16461;BME280;8341;42.048;24.650;2023-04-21T12:34:47;96707.44;;;19.08;40.80
16461;BME280;8341;42.048;24.650;2023-04-21T12:37:14;96700.34;;;19.20;39.25
16461;BME280;8341;42.048;24.650;2023-04-21T12:39:40;96692.69;;;19.33;41.08
16461;BME280;8341;42.048;24.650;2023-04-21T12:42:07;96703.66;;;19.47;40.40
16461;BME280;8341;42.048;24.650;2023-04-21T12:44:37;96699.34;;;19.66;39.15
16461;BME280;8341;42.048;24.650;2023-04-21T12:47:05;96698.47;;;19.79;36.10
16461;BME280;8341;42.048;24.650;2023-04-21T12:49:31;96702.34;;;19.76;39.33
16461;BME280;8341;42.048;24.650;2023-04-21T12:51:58;96688.41;;;19.53;38.16
16461;BME280;8341;42.048;24.650;2023-04-21T12:54:25;96694.06;;;19.48;37.90
16461;BME280;8341;42.048;24.650;2023-04-21T12:56:52;96687.31;;;19.28;36.30
16461;BME280;8341;42.048;24.650;2023-04-21T12:59:19;96689.72;;;19.31;38.43
16461;BME280;8341;42.048;24.650;2023-04-21T13:01:47;96677.56;;;19.34;38.86
16461;BME280;8341;42.048;24.650;2023-04-21T13:04:14;96683.47;;;19.31;37.13